Time;durP1;ratioP1;P1;durP2;ratioP2;P2;SDS_P1;SDS_P2;PMS_P1;PMS_P2;Temp;Humidity;BMP_temperature;BMP_pressure;BME280_temperature;BME280_humidity;BME280_pressure;Samples;Min_cycle;Max_cycle;Signal;HPM_P1;HPM_P2
2023/02/01 00:00:48;;;;;;;2.27;2.10;;;;;;;;;;6229174;28;20243;-80
2023/02/01 00:03:56;;;;;;;2.53;2.40;;;;;;;;;;6229565;28;20269;-80
2023/02/01 00:07:01;;;;;;;9.20;2.30;;;;;;;;;;6212847;28;20290;-79
2023/02/01 00:10:09;;;;;;;6.53;2.77;;;;;;;;;;6229437;28;20250;-80
2023/02/01 00:13:15;;;;;;;6.70;2.93;;;;;;;;;;6219610;28;20299;-81
2023/02/01 00:16:24;;;;;;;3.30;3.00;;;;;;;;;;6183555;28;20294;-80
2023/02/01 00:19:29;;;;;;;6.27;3.10;;;;;;;;;;6213499;28;20311;-80
2023/02/01 00:22:34;;;;;;;6.27;3.13;;;;;;;;;;6196751;28;20346;-81
2023/02/01 00:25:40;;;;;;;13.87;3.30;;;;;;;;;;6214332;28;20311;-80
2023/02/01 00:28:46;;;;;;;3.53;3.23;;;;;;;;;;6213858;28;20299;-80
2023/02/01 00:31:54;;;;;;;3.43;3.00;;;;;;;;;;6196573;28;20270;-80
2023/02/01 00:35:00;;;;;;;8.10;3.07;;;;;;;;;;6195915;28;20295;-80
2023/02/01 00:38:06;;;;;;;9.03;3.10;;;;;;;;;;6212205;28;20291;-80
2023/02/01 00:41:15;;;;;;;8.60;3.10;;;;;;;;;;6196485;28;20299;-80
2023/02/01 00:44:23;;;;;;;9.67;3.43;;;;;;;;;;6195930;28;20302;-80
2023/02/01 00:47:31;;;;;;;5.23;3.00;;;;;;;;;;6196036;28;20548;-80
2023/02/01 00:50:42;;;;;;;9.53;3.10;;;;;;;;;;6212966;28;20297;-80
2023/02/01 00:53:47;;;;;;;5.57;2.67;;;;;;;;;;6197799;28;20295;-80
2023/02/01 00:56:54;;;;;;;7.57;3.23;;;;;;;;;;6206978;28;20289;-82
2023/02/01 01:00:01;;;;;;;4.20;2.90;;;;;;;;;;6200390;28;20539;-81
2023/02/01 01:03:17;;;;;;;7.60;3.33;;;;;;;;;;6193966;28;20451;-79
2023/02/01 01:06:24;;;;;;;7.57;3.63;;;;;;;;;;6195698;28;20295;-80
2023/02/01 01:09:30;;;;;;;5.83;2.90;;;;;;;;;;6194896;28;20306;-80
2023/02/01 01:12:38;;;;;;;3.73;2.63;;;;;;;;;;6195139;28;20432;-80
2023/02/01 01:15:44;;;;;;;13.50;3.20;;;;;;;;;;6179356;28;20297;-80
2023/02/01 01:18:49;;;;;;;5.00;3.07;;;;;;;;;;6212088;28;20297;-80
2023/02/01 01:21:54;;;;;;;8.30;3.23;;;;;;;;;;6194654;28;20295;-81
2023/02/01 01:25:02;;;;;;;8.70;3.40;;;;;;;;;;6211856;28;20473;-79
2023/02/01 01:28:11;;;;;;;4.40;3.40;;;;;;;;;;6194843;28;20293;-79
2023/02/01 01:31:21;;;;;;;3.43;3.00;;;;;;;;;;6195107;28;20291;-80
2023/02/01 01:34:26;;;;;;;9.80;3.10;;;;;;;;;;6194389;28;20316;-80
2023/02/01 01:37:31;;;;;;;3.90;3.50;;;;;;;;;;6211948;28;20290;-80
2023/02/01 01:40:38;;;;;;;5.80;3.40;;;;;;;;;;6194406;28;20299;-81
2023/02/01 01:43:59;;;;;;;5.27;3.43;;;;;;;;;;6195271;28;20302;-81
2023/02/01 01:47:08;;;;;;;8.93;3.40;;;;;;;;;;6195432;28;20271;-81
2023/02/01 01:50:16;;;;;;;6.60;3.50;;;;;;;;;;6194311;28;20298;-80
2023/02/01 01:53:24;;;;;;;4.70;3.60;;;;;;;;;;6194054;28;20294;-80
2023/02/01 01:56:31;;;;;;;7.87;3.23;;;;;;;;;;6211937;28;20295;-80
2023/02/01 01:59:38;;;;;;;6.17;3.37;;;;;;;;;;6194463;28;20581;-81
2023/02/01 02:03:06;;;;;;;7.50;3.60;;;;;;;;;;6195592;28;20288;-80
2023/02/01 02:06:18;;;;;;;7.07;3.17;;;;;;;;;;6233518;28;20301;-78
2023/02/01 02:09:23;;;;;;;7.30;3.90;;;;;;;;;;6235163;28;20287;-76
2023/02/01 02:12:29;;;;;;;9.07;3.30;;;;;;;;;;6235216;28;20598;-76
2023/02/01 02:15:36;;;;;;;8.93;3.73;;;;;;;;;;6234790;28;20303;-77
2023/02/01 02:18:47;;;;;;;6.83;3.47;;;;;;;;;;6217902;28;20294;-76
2023/02/01 02:22:12;;;;;;;9.77;3.50;;;;;;;;;;6234552;28;20299;-76
2023/02/01 02:25:51;;;;;;;7.97;3.30;;;;;;;;;;6233822;28;20586;-78
2023/02/01 02:29:41;;;;;;;5.60;3.37;;;;;;;;;;6220506;28;20294;-78
2023/02/01 02:33:18;;;;;;;6.40;2.83;;;;;;;;;;6218208;28;20291;-79
2023/02/01 02:36:34;;;;;;;12.37;3.70;;;;;;;;;;6242315;28;20303;-77
2023/02/01 02:39:46;;;;;;;4.17;3.30;;;;;;;;;;6244095;28;20413;-77
2023/02/01 02:54:45;;;;;;;7.47;3.83;;;;;;;;;;6221810;28;20299;-78
2023/02/01 03:06:55;;;;;;;5.43;3.57;;;;;;;;;;6222065;28;20291;-77
2023/02/01 03:10:05;;;;;;;9.47;3.77;;;;;;;;;;6237472;28;20302;-77
2023/02/01 03:13:17;;;;;;;10.63;3.43;;;;;;;;;;6230793;28;20295;-77
2023/02/01 03:16:26;;;;;;;4.27;3.50;;;;;;;;;;6238126;28;20291;-77
2023/02/01 03:19:34;;;;;;;7.27;4.27;;;;;;;;;;6237270;28;20484;-76
2023/02/01 03:22:41;;;;;;;3.20;3.00;;;;;;;;;;6221426;28;20295;-77
2023/02/01 03:25:50;;;;;;;5.27;3.70;;;;;;;;;;6236600;28;20295;-77
2023/02/01 03:28:58;;;;;;;7.27;3.70;;;;;;;;;;6236209;28;20487;-78
2023/02/01 03:32:04;;;;;;;8.73;3.80;;;;;;;;;;6229047;28;20265;-78
2023/02/01 03:35:10;;;;;;;6.37;4.10;;;;;;;;;;6212923;28;20490;-78
2023/02/01 03:38:22;;;;;;;13.23;4.00;;;;;;;;;;6212890;28;20295;-78
2023/02/01 03:41:35;;;;;;;8.13;4.07;;;;;;;;;;6196256;28;20312;-77
2023/02/01 03:44:44;;;;;;;10.00;3.97;;;;;;;;;;6212557;28;20301;-78
2023/02/01 03:47:51;;;;;;;4.57;3.80;;;;;;;;;;6196599;28;20440;-78
2023/02/01 03:51:00;;;;;;;5.87;3.77;;;;;;;;;;6229155;28;20302;-78
2023/02/01 03:54:07;;;;;;;6.47;3.63;;;;;;;;;;6228789;28;20296;-78
2023/02/01 03:57:15;;;;;;;7.77;3.50;;;;;;;;;;6212596;28;20564;-78
2023/02/01 04:00:23;;;;;;;17.03;3.90;;;;;;;;;;6198223;28;20305;-78
2023/02/01 04:03:30;;;;;;;6.67;3.50;;;;;;;;;;6235369;28;20304;-78
2023/02/01 04:06:37;;;;;;;7.63;3.27;;;;;;;;;;6209819;28;20303;-78
2023/02/01 04:09:43;;;;;;;5.53;3.20;;;;;;;;;;6220274;28;20289;-78
2023/02/01 04:12:49;;;;;;;4.47;3.67;;;;;;;;;;6237438;28;20591;-77
2023/02/01 04:15:55;;;;;;;9.33;3.70;;;;;;;;;;6236560;28;20308;-77
2023/02/01 04:19:01;;;;;;;5.67;3.80;;;;;;;;;;6236880;28;20285;-79
2023/02/01 04:22:06;;;;;;;6.33;3.73;;;;;;;;;;6237286;28;20295;-78
2023/02/01 04:25:11;;;;;;;5.33;3.77;;;;;;;;;;6236815;28;20303;-77
2023/02/01 04:28:18;;;;;;;6.20;3.33;;;;;;;;;;6220210;28;20305;-78
2023/02/01 04:31:25;;;;;;;5.57;3.40;;;;;;;;;;6236141;28;20450;-77
2023/02/01 04:34:30;;;;;;;10.63;3.33;;;;;;;;;;6236516;28;20314;-77
2023/02/01 04:37:36;;;;;;;5.43;3.17;;;;;;;;;;6235561;28;20286;-77
2023/02/01 04:40:41;;;;;;;6.40;3.40;;;;;;;;;;6236208;28;20288;-78
2023/02/01 04:43:53;;;;;;;6.73;3.60;;;;;;;;;;6234929;28;20563;-78
2023/02/01 04:46:59;;;;;;;5.27;3.17;;;;;;;;;;6236557;28;20296;-78
2023/02/01 04:50:05;;;;;;;7.37;3.50;;;;;;;;;;6235813;28;20298;-77
2023/02/01 04:53:11;;;;;;;9.43;3.63;;;;;;;;;;6235009;28;20595;-78
2023/02/01 04:56:17;;;;;;;9.63;3.20;;;;;;;;;;6235388;28;20292;-78
2023/02/01 04:59:23;;;;;;;11.53;3.50;;;;;;;;;;6236379;28;20467;-77
2023/02/01 05:02:32;;;;;;;5.17;3.07;;;;;;;;;;6236387;28;20298;-77
2023/02/01 05:05:37;;;;;;;5.83;3.33;;;;;;;;;;6235246;28;20290;-77
2023/02/01 05:08:42;;;;;;;11.90;3.63;;;;;;;;;;6235799;28;20482;-77
2023/02/01 05:15:14;;;;;;;5.23;3.60;;;;;;;;;;6211490;28;20477;-77
2023/02/01 05:18:19;;;;;;;13.07;3.57;;;;;;;;;;6194749;28;20294;-77
2023/02/01 05:21:24;;;;;;;5.03;3.33;;;;;;;;;;6211716;28;20295;-78
2023/02/01 05:24:29;;;;;;;7.20;3.13;;;;;;;;;;6211344;28;20297;-79
2023/02/01 05:27:34;;;;;;;4.53;3.23;;;;;;;;;;6212010;28;20307;-77
2023/02/01 05:30:41;;;;;;;10.63;4.07;;;;;;;;;;6194088;28;20305;-77
2023/02/01 05:33:47;;;;;;;3.87;3.03;;;;;;;;;;6234389;28;20293;-77
2023/02/01 05:36:52;;;;;;;10.00;3.43;;;;;;;;;;6236122;28;20302;-78
2023/02/01 05:39:57;;;;;;;5.07;3.00;;;;;;;;;;6235785;28;20299;-77
2023/02/01 05:43:02;;;;;;;5.60;3.13;;;;;;;;;;6236073;28;20295;-79
2023/02/01 05:46:10;;;;;;;8.67;3.87;;;;;;;;;;6235596;28;20604;-77
2023/02/01 05:49:15;;;;;;;8.13;3.57;;;;;;;;;;6235273;28;20295;-78
2023/02/01 05:52:20;;;;;;;7.07;3.83;;;;;;;;;;6236200;28;20471;-78
2023/02/01 05:55:25;;;;;;;5.87;3.60;;;;;;;;;;6235268;28;20601;-77
2023/02/01 05:58:31;;;;;;;4.60;2.77;;;;;;;;;;6233865;28;20302;-79
2023/02/01 06:01:37;;;;;;;8.70;3.60;;;;;;;;;;6235908;28;20297;-80
2023/02/01 06:04:43;;;;;;;10.50;3.60;;;;;;;;;;6238903;28;20295;-77
2023/02/01 06:07:49;;;;;;;11.97;3.70;;;;;;;;;;6240759;28;20300;-77
2023/02/01 06:11:01;;;;;;;8.17;3.70;;;;;;;;;;6204852;28;20304;-77
2023/02/01 06:14:07;;;;;;;7.90;3.60;;;;;;;;;;6215602;28;20283;-78
2023/02/01 06:17:14;;;;;;;6.77;3.20;;;;;;;;;;6198644;28;20295;-78
2023/02/01 06:20:19;;;;;;;12.33;3.47;;;;;;;;;;6211430;28;20292;-76
2023/02/01 06:23:25;;;;;;;7.33;3.03;;;;;;;;;;6214781;28;20565;-77
2023/02/01 06:26:31;;;;;;;4.77;3.03;;;;;;;;;;6201607;28;20305;-77
2023/02/01 06:29:35;;;;;;;5.97;3.10;;;;;;;;;;6191662;28;20292;-78
2023/02/01 06:32:43;;;;;;;8.33;3.13;;;;;;;;;;6220207;28;20295;-77
2023/02/01 06:35:48;;;;;;;12.47;3.33;;;;;;;;;;6239452;28;20318;-79
2023/02/01 06:38:53;;;;;;;9.83;3.63;;;;;;;;;;6239397;28;20316;-77
2023/02/01 06:41:58;;;;;;;12.27;3.40;;;;;;;;;;6239385;28;20591;-79
2023/02/01 06:45:06;;;;;;;7.63;3.03;;;;;;;;;;6238386;28;20360;-79
2023/02/01 06:48:15;;;;;;;7.20;3.20;;;;;;;;;;6222638;28;20304;-78
2023/02/01 06:51:22;;;;;;;10.10;3.07;;;;;;;;;;6239045;28;20291;-78
2023/02/01 06:54:27;;;;;;;4.10;2.50;;;;;;;;;;6239675;28;20331;-80
2023/02/01 06:57:34;;;;;;;8.50;3.07;;;;;;;;;;6238378;28;20308;-82
2023/02/01 07:00:39;;;;;;;5.93;2.77;;;;;;;;;;6237761;28;20299;-79
2023/02/01 07:03:50;;;;;;;9.90;2.67;;;;;;;;;;6239074;28;20486;-78
2023/02/01 07:06:56;;;;;;;6.30;2.70;;;;;;;;;;6236777;28;20304;-78
2023/02/01 07:10:01;;;;;;;5.57;2.87;;;;;;;;;;6237280;28;20300;-77
2023/02/01 07:13:06;;;;;;;2.60;2.40;;;;;;;;;;6218553;28;20288;-79
2023/02/01 07:16:15;;;;;;;5.83;2.60;;;;;;;;;;6213517;28;20298;-78
2023/02/01 07:19:22;;;;;;;8.73;2.37;;;;;;;;;;6198357;28;20580;-80
2023/02/01 07:22:27;;;;;;;6.10;2.63;;;;;;;;;;6214425;28;20323;-80
2023/02/01 07:25:32;;;;;;;9.63;2.90;;;;;;;;;;6214290;28;20577;-78
2023/02/01 07:28:38;;;;;;;8.57;3.43;;;;;;;;;;6214324;28;20296;-78
2023/02/01 07:31:44;;;;;;;10.67;3.00;;;;;;;;;;6219960;28;20296;-78
2023/02/01 07:34:50;;;;;;;5.90;3.10;;;;;;;;;;6237244;28;20307;-77
2023/02/01 07:37:58;;;;;;;3.30;2.97;;;;;;;;;;6237885;28;20280;-78
2023/02/01 07:41:06;;;;;;;7.60;3.43;;;;;;;;;;6238077;28;20311;-80
2023/02/01 07:44:12;;;;;;;9.03;3.40;;;;;;;;;;6238826;28;20290;-77
2023/02/01 07:47:18;;;;;;;7.00;3.00;;;;;;;;;;6204940;28;20322;-78
2023/02/01 07:50:24;;;;;;;7.13;2.90;;;;;;;;;;6238099;28;20293;-77
2023/02/01 07:53:32;;;;;;;4.47;2.73;;;;;;;;;;6238308;28;20600;-78
2023/02/01 07:56:37;;;;;;;5.23;2.80;;;;;;;;;;6238108;28;20296;-77
2023/02/01 08:03:02;;;;;;;5.27;2.50;;;;;;;;;;6235597;28;20304;-78
2023/02/01 08:06:09;;;;;;;7.30;2.63;;;;;;;;;;6237634;28;20296;-78
2023/02/01 08:09:14;;;;;;;5.90;2.60;;;;;;;;;;6237866;28;20308;-78
2023/02/01 08:12:20;;;;;;;2.77;2.53;;;;;;;;;;6222446;28;20293;-78
2023/02/01 08:15:25;;;;;;;9.30;2.67;;;;;;;;;;6196006;28;20289;-77
2023/02/01 08:18:31;;;;;;;7.83;2.50;;;;;;;;;;6214034;28;20310;-78
2023/02/01 08:21:39;;;;;;;6.20;2.53;;;;;;;;;;6212407;28;20300;-80
2023/02/01 08:24:44;;;;;;;4.50;2.70;;;;;;;;;;6213548;28;20293;-78
2023/02/01 08:27:49;;;;;;;5.67;2.40;;;;;;;;;;6194912;28;20304;-79
2023/02/01 08:30:55;;;;;;;3.57;2.33;;;;;;;;;;6213434;28;20298;-80
2023/02/01 08:34:03;;;;;;;7.67;2.70;;;;;;;;;;6240688;28;20299;-79
2023/02/01 08:37:11;;;;;;;5.20;2.30;;;;;;;;;;6203360;28;20300;-77
2023/02/01 08:40:21;;;;;;;3.77;2.10;;;;;;;;;;6236977;28;20293;-77
2023/02/01 08:43:27;;;;;;;4.47;2.20;;;;;;;;;;6238742;28;20298;-78
2023/02/01 08:46:32;;;;;;;6.43;2.30;;;;;;;;;;6239414;28;20488;-79
2023/02/01 08:49:37;;;;;;;2.27;1.87;;;;;;;;;;6237531;28;20296;-79
2023/02/01 08:52:44;;;;;;;3.37;1.97;;;;;;;;;;6236408;28;20308;-78
2023/02/01 08:55:50;;;;;;;5.80;2.37;;;;;;;;;;6236446;28;20297;-78
2023/02/01 08:58:55;;;;;;;3.13;2.00;;;;;;;;;;6236815;28;20287;-78
2023/02/01 09:02:00;;;;;;;5.30;2.30;;;;;;;;;;6236917;28;20579;-78
2023/02/01 09:05:05;;;;;;;9.37;2.40;;;;;;;;;;6235379;28;20297;-79
2023/02/01 09:08:16;;;;;;;4.63;2.30;;;;;;;;;;6236430;28;20295;-78
2023/02/01 09:11:21;;;;;;;6.50;1.90;;;;;;;;;;6229854;28;20291;-77
2023/02/01 09:14:27;;;;;;;5.70;1.90;;;;;;;;;;6212423;28;20564;-79
2023/02/01 09:17:32;;;;;;;4.30;2.43;;;;;;;;;;6201603;28;20300;-79
2023/02/01 09:20:38;;;;;;;12.00;2.77;;;;;;;;;;6211221;28;20296;-79
2023/02/01 09:23:48;;;;;;;7.60;3.50;;;;;;;;;;6211865;28;20454;-79
2023/02/01 09:26:53;;;;;;;6.30;4.10;;;;;;;;;;6211791;28;20300;-77
2023/02/01 09:29:58;;;;;;;3.40;2.43;;;;;;;;;;6210785;28;20311;-78
2023/02/01 09:33:03;;;;;;;2.97;2.77;;;;;;;;;;6230394;28;20587;-78
2023/02/01 09:36:10;;;;;;;6.00;3.60;;;;;;;;;;6235555;28;20296;-77
2023/02/01 09:39:17;;;;;;;3.30;3.00;;;;;;;;;;6235813;28;20301;-78
2023/02/01 09:42:45;;;;;;;6.23;2.50;;;;;;;;;;6235935;28;20479;-79
2023/02/01 09:45:57;;;;;;;3.63;2.30;;;;;;;;;;6245420;28;20318;-79
2023/02/01 09:49:04;;;;;;;5.50;1.77;;;;;;;;;;6235775;28;20308;-78
2023/02/01 09:52:12;;;;;;;2.13;1.80;;;;;;;;;;6218407;28;20318;-76
2023/02/01 09:55:33;;;;;;;5.17;2.80;;;;;;;;;;6217915;28;20293;-78
2023/02/01 09:58:40;;;;;;;5.40;2.40;;;;;;;;;;6235189;28;20481;-78
2023/02/01 10:01:45;;;;;;;5.57;3.23;;;;;;;;;;6235337;28;20301;-78
2023/02/01 10:04:51;;;;;;;7.83;2.33;;;;;;;;;;6200635;28;20307;-78
2023/02/01 10:08:02;;;;;;;6.53;2.37;;;;;;;;;;6213518;28;20267;-77
2023/02/01 10:11:19;;;;;;;4.77;2.50;;;;;;;;;;6213114;28;20284;-79
2023/02/01 10:14:44;;;;;;;8.17;2.67;;;;;;;;;;6193863;28;20318;-78
2023/02/01 10:18:03;;;;;;;3.23;2.80;;;;;;;;;;6210437;28;20299;-77
2023/02/01 10:21:16;;;;;;;4.33;2.70;;;;;;;;;;6209385;28;20293;-77
2023/02/01 10:24:45;;;;;;;3.00;2.70;;;;;;;;;;6211002;28;20593;-78
2023/02/01 10:27:52;;;;;;;3.27;2.43;;;;;;;;;;6209411;28;20298;-78
2023/02/01 10:30:59;;;;;;;8.03;2.13;;;;;;;;;;6193445;28;20303;-77
2023/02/01 10:34:12;;;;;;;6.07;2.97;;;;;;;;;;6211325;28;20285;-79
2023/02/01 10:37:27;;;;;;;2.57;2.37;;;;;;;;;;6210225;28;20297;-76
2023/02/01 10:40:33;;;;;;;7.10;2.77;;;;;;;;;;6210946;28;20561;-77
2023/02/01 10:43:40;;;;;;;3.40;2.30;;;;;;;;;;6211014;28;20290;-78
2023/02/01 10:46:45;;;;;;;6.07;2.80;;;;;;;;;;6210865;28;20480;-78
2023/02/01 10:49:56;;;;;;;4.47;2.47;;;;;;;;;;6211731;28;20292;-78
2023/02/01 10:53:06;;;;;;;7.63;2.60;;;;;;;;;;6215031;28;20281;-77
2023/02/01 10:56:13;;;;;;;6.40;3.23;;;;;;;;;;6217273;28;20293;-79
2023/02/01 10:59:21;;;;;;;11.50;4.00;;;;;;;;;;6215664;28;20577;-78
2023/02/01 11:02:30;;;;;;;6.40;3.53;;;;;;;;;;6214755;28;20341;-80
2023/02/01 11:05:45;;;;;;;5.60;3.53;;;;;;;;;;6236567;28;20303;-80
2023/02/01 11:08:52;;;;;;;5.97;3.53;;;;;;;;;;6222226;28;20613;-77
2023/02/01 11:11:59;;;;;;;5.47;3.67;;;;;;;;;;6226835;28;20297;-76
2023/02/01 11:15:16;;;;;;;11.67;4.00;;;;;;;;;;6214440;28;20478;-80
2023/02/01 11:18:26;;;;;;;7.83;3.20;;;;;;;;;;6197909;28;20582;-78
2023/02/01 11:21:32;;;;;;;11.30;4.30;;;;;;;;;;6213931;28;20296;-79
2023/02/01 11:24:38;;;;;;;5.77;3.53;;;;;;;;;;6214798;28;20301;-80
2023/02/01 11:27:44;;;;;;;6.17;3.97;;;;;;;;;;6214185;28;20301;-77
2023/02/01 11:31:02;;;;;;;4.40;4.10;;;;;;;;;;6215383;28;20600;-80
2023/02/01 11:34:10;;;;;;;5.10;4.03;;;;;;;;;;6240047;28;20320;-78
2023/02/01 11:37:19;;;;;;;10.27;3.80;;;;;;;;;;6239202;28;20300;-79
2023/02/01 11:40:29;;;;;;;3.83;3.53;;;;;;;;;;6238072;28;20303;-77
2023/02/01 11:43:34;;;;;;;9.10;4.17;;;;;;;;;;6211746;28;20298;-80
2023/02/01 11:46:41;;;;;;;8.93;4.00;;;;;;;;;;6237430;28;20297;-80
2023/02/01 11:49:47;;;;;;;5.07;3.90;;;;;;;;;;6221479;28;20300;-79
2023/02/01 11:53:06;;;;;;;4.50;3.70;;;;;;;;;;6210648;28;20306;-77
2023/02/01 11:56:18;;;;;;;6.37;3.50;;;;;;;;;;6237673;28;20288;-77
2023/02/01 11:59:34;;;;;;;4.07;3.67;;;;;;;;;;6238307;28;20298;-77
2023/02/01 12:03:00;;;;;;;6.10;3.90;;;;;;;;;;6235982;28;20296;-78
2023/02/01 12:06:11;;;;;;;5.13;3.60;;;;;;;;;;6237745;28;20293;-77
2023/02/01 12:09:27;;;;;;;5.60;3.10;;;;;;;;;;6239233;28;20298;-78
2023/02/01 12:12:39;;;;;;;3.93;3.57;;;;;;;;;;6222192;28;20300;-77
2023/02/01 12:15:57;;;;;;;5.97;3.87;;;;;;;;;;6213172;28;20289;-78
2023/02/01 12:19:24;;;;;;;3.40;3.20;;;;;;;;;;6212665;28;20487;-78
2023/02/01 12:22:38;;;;;;;3.33;2.97;;;;;;;;;;6212213;28;20302;-78
2023/02/01 12:26:17;;;;;;;3.73;3.30;;;;;;;;;;6212498;28;20379;-78
2023/02/01 12:29:44;;;;;;;3.47;3.10;;;;;;;;;;6180047;28;20277;-78
2023/02/01 12:32:57;;;;;;;6.10;3.57;;;;;;;;;;6226742;28;20304;-78
2023/02/01 12:36:14;;;;;;;4.17;3.57;;;;;;;;;;6219122;28;20292;-78
2023/02/01 12:39:25;;;;;;;2.97;2.80;;;;;;;;;;6237258;28;20299;-78
2023/02/01 12:42:33;;;;;;;3.57;3.07;;;;;;;;;;6235791;28;20304;-77
2023/02/01 12:45:42;;;;;;;8.50;3.40;;;;;;;;;;6219172;28;20304;-77
2023/02/01 12:48:54;;;;;;;4.27;3.23;;;;;;;;;;6237217;28;20298;-78
2023/02/01 12:52:04;;;;;;;4.80;3.00;;;;;;;;;;6235769;28;20233;-78
2023/02/01 12:55:18;;;;;;;3.57;3.30;;;;;;;;;;6236504;28;20285;-76
2023/02/01 12:58:32;;;;;;;4.43;3.40;;;;;;;;;;6236958;28;20300;-78
2023/02/01 13:01:40;;;;;;;4.50;3.80;;;;;;;;;;6234907;28;20304;-77
2023/02/01 13:04:54;;;;;;;4.57;4.10;;;;;;;;;;6236252;28;20324;-77
2023/02/01 13:08:03;;;;;;;4.03;3.70;;;;;;;;;;6235129;28;20285;-77
2023/02/01 13:11:14;;;;;;;6.10;3.40;;;;;;;;;;6231290;28;20466;-77
2023/02/01 13:14:28;;;;;;;3.03;2.83;;;;;;;;;;6211310;28;20428;-77
2023/02/01 13:17:35;;;;;;;3.40;3.10;;;;;;;;;;6195158;28;20298;-79
2023/02/01 13:20:48;;;;;;;2.87;2.60;;;;;;;;;;6213201;28;20291;-77
2023/02/01 13:23:55;;;;;;;3.90;3.37;;;;;;;;;;6212686;28;20298;-77
2023/02/01 13:27:00;;;;;;;3.67;3.40;;;;;;;;;;6211576;28;20308;-77
2023/02/01 13:30:12;;;;;;;4.27;2.27;;;;;;;;;;6211313;28;20293;-78
2023/02/01 13:33:51;;;;;;;4.23;2.20;;;;;;;;;;6231554;28;20301;-77
2023/02/01 13:37:12;;;;;;;2.20;2.00;;;;;;;;;;6234950;28;20308;-79
2023/02/01 13:40:36;;;;;;;2.50;1.77;;;;;;;;;;6235950;28;20297;-79
2023/02/01 13:43:49;;;;;;;2.57;1.87;;;;;;;;;;6236507;28;20305;-77
2023/02/01 13:46:57;;;;;;;2.00;1.90;;;;;;;;;;6217392;28;20297;-76
2023/02/01 13:50:13;;;;;;;2.47;2.27;;;;;;;;;;6235557;28;20265;-77
2023/02/01 13:53:22;;;;;;;1.57;1.57;;;;;;;;;;6235668;28;20363;-77
2023/02/01 13:56:29;;;;;;;2.07;1.70;;;;;;;;;;6218357;28;20289;-77
2023/02/01 14:00:08;;;;;;;2.27;1.63;;;;;;;;;;6235707;28;20312;-79
2023/02/01 14:03:18;;;;;;;2.13;1.90;;;;;;;;;;6219016;28;20302;-79
2023/02/01 14:06:45;;;;;;;4.17;2.57;;;;;;;;;;6233572;28;20296;-77
2023/02/01 14:09:50;;;;;;;8.97;2.83;;;;;;;;;;6234825;28;20492;-77
2023/02/01 14:13:05;;;;;;;3.00;2.73;;;;;;;;;;6216435;28;20292;-79
2023/02/01 14:16:15;;;;;;;2.40;2.20;;;;;;;;;;6210166;28;20308;-76
2023/02/01 14:19:23;;;;;;;2.97;2.43;;;;;;;;;;6210974;28;20294;-77
2023/02/01 14:22:35;;;;;;;2.40;2.30;;;;;;;;;;6210983;28;20289;-77
2023/02/01 14:25:41;;;;;;;2.27;2.00;;;;;;;;;;6213770;28;20363;-77
2023/02/01 14:29:16;;;;;;;7.43;2.10;;;;;;;;;;6204931;28;20301;-78
2023/02/01 14:32:31;;;;;;;2.03;1.90;;;;;;;;;;6227814;28;20292;-78
2023/02/01 14:35:40;;;;;;;2.30;2.13;;;;;;;;;;6238727;28;20314;-76
2023/02/01 14:38:51;;;;;;;1.80;1.70;;;;;;;;;;6222452;28;20289;-77
2023/02/01 14:42:01;;;;;;;3.50;2.33;;;;;;;;;;6238507;28;20296;-78
2023/02/01 14:45:49;;;;;;;4.80;2.40;;;;;;;;;;6238506;28;20483;-78
2023/02/01 14:48:55;;;;;;;3.00;2.17;;;;;;;;;;6239742;28;20293;-78
2023/02/01 14:52:01;;;;;;;2.53;2.33;;;;;;;;;;6238319;28;20589;-78
2023/02/01 14:55:11;;;;;;;2.30;2.10;;;;;;;;;;6238599;28;20292;-78
2023/02/01 14:58:20;;;;;;;2.53;1.93;;;;;;;;;;6239065;28;20293;-79
2023/02/01 15:01:28;;;;;;;4.63;1.93;;;;;;;;;;6238544;28;20300;-79
2023/02/01 15:04:43;;;;;;;2.10;2.00;;;;;;;;;;6238302;28;20487;-77
2023/02/01 15:07:48;;;;;;;4.37;2.30;;;;;;;;;;6238495;28;20296;-77
2023/02/01 15:10:54;;;;;;;1.70;1.60;;;;;;;;;;6234650;28;20305;-79
2023/02/01 15:14:00;;;;;;;1.93;1.93;;;;;;;;;;6214510;28;20265;-76
2023/02/01 15:17:20;;;;;;;2.03;1.97;;;;;;;;;;6197023;28;20466;-77
2023/02/01 15:20:29;;;;;;;3.20;1.80;;;;;;;;;;6214166;28;20558;-79
2023/02/01 15:23:35;;;;;;;2.50;2.07;;;;;;;;;;6213606;28;20589;-79
2023/02/01 15:26:41;;;;;;;4.10;2.10;;;;;;;;;;6214086;28;20304;-78
2023/02/01 15:29:46;;;;;;;3.13;1.90;;;;;;;;;;6197278;28;20296;-78
2023/02/01 15:33:05;;;;;;;1.80;1.80;;;;;;;;;;6229993;28;20495;-77
2023/02/01 15:36:17;;;;;;;6.53;4.10;;;;;;;;;;6236586;28;20571;-78
2023/02/01 15:39:25;;;;;;;4.03;3.07;;;;;;;;;;6238697;28;20289;-78
2023/02/01 15:42:31;;;;;;;2.37;2.27;;;;;;;;;;6238394;28;20305;-79
2023/02/01 15:45:36;;;;;;;3.60;2.90;;;;;;;;;;6237952;28;20312;-78
2023/02/01 15:48:46;;;;;;;5.10;4.80;;;;;;;;;;6238535;28;20297;-79
2023/02/01 15:51:52;;;;;;;2.87;2.30;;;;;;;;;;6237637;28;20300;-78
2023/02/01 15:54:59;;;;;;;2.10;2.00;;;;;;;;;;6237292;28;20299;-77
2023/02/01 15:58:07;;;;;;;3.47;2.10;;;;;;;;;;6238338;28;20305;-79
2023/02/01 16:01:15;;;;;;;2.00;1.90;;;;;;;;;;6237290;28;20308;-77
2023/02/01 16:04:24;;;;;;;2.60;1.60;;;;;;;;;;6237715;28;20303;-78
2023/02/01 16:07:34;;;;;;;3.03;2.23;;;;;;;;;;6236713;28;20615;-78
2023/02/01 16:10:41;;;;;;;1.83;1.37;;;;;;;;;;6236635;28;20303;-77
2023/02/01 16:13:47;;;;;;;2.07;1.60;;;;;;;;;;6196438;28;20296;-78
2023/02/01 16:16:53;;;;;;;2.60;1.60;;;;;;;;;;6212713;28;20304;-78
2023/02/01 16:20:00;;;;;;;1.70;1.60;;;;;;;;;;6217308;28;20316;-78
2023/02/01 16:23:06;;;;;;;1.60;1.60;;;;;;;;;;6218162;28;20273;-78
2023/02/01 16:26:11;;;;;;;1.40;1.30;;;;;;;;;;6197089;28;20305;-77
2023/02/01 16:29:16;;;;;;;1.50;1.40;;;;;;;;;;6212941;28;20292;-78
2023/02/01 16:32:22;;;;;;;1.63;1.50;;;;;;;;;;6223966;28;20291;-77
2023/02/01 16:35:32;;;;;;;2.67;1.70;;;;;;;;;;6236450;28;20298;-78
2023/02/01 16:38:37;;;;;;;1.53;1.40;;;;;;;;;;6237294;28;20291;-78
2023/02/01 16:41:43;;;;;;;2.20;1.40;;;;;;;;;;6236060;28;20607;-78
2023/02/01 16:44:48;;;;;;;2.77;1.60;;;;;;;;;;6236908;28;20564;-79
2023/02/01 16:47:56;;;;;;;3.53;3.23;;;;;;;;;;6218712;28;20304;-77
2023/02/01 16:51:08;;;;;;;2.60;1.80;;;;;;;;;;6235947;28;20308;-77
2023/02/01 16:54:14;;;;;;;2.30;1.80;;;;;;;;;;6220403;28;20299;-79
2023/02/01 16:57:22;;;;;;;1.90;1.80;;;;;;;;;;6235956;28;20292;-78
2023/02/01 17:00:30;;;;;;;1.70;1.67;;;;;;;;;;6219364;28;20291;-77
2023/02/01 17:03:36;;;;;;;1.60;1.60;;;;;;;;;;6219395;28;20299;-76
2023/02/01 17:06:47;;;;;;;4.47;1.93;;;;;;;;;;6236273;28;20320;-76
2023/02/01 17:09:52;;;;;;;1.80;1.70;;;;;;;;;;6236161;28;20295;-77
2023/02/01 17:12:57;;;;;;;2.10;2.00;;;;;;;;;;6217285;28;20483;-76
2023/02/01 17:16:05;;;;;;;4.63;1.83;;;;;;;;;;6211136;28;20588;-77
2023/02/01 17:19:15;;;;;;;2.43;1.40;;;;;;;;;;6211879;28;20299;-77
2023/02/01 17:22:22;;;;;;;1.93;1.93;;;;;;;;;;6211403;28;20497;-77
2023/02/01 17:25:28;;;;;;;2.23;1.77;;;;;;;;;;6211342;28;20302;-77
2023/02/01 17:28:33;;;;;;;2.00;1.90;;;;;;;;;;6211907;28;20486;-76
2023/02/01 17:31:42;;;;;;;5.83;1.93;;;;;;;;;;6217122;28;20297;-77
2023/02/01 17:34:48;;;;;;;3.87;2.20;;;;;;;;;;6235094;28;20291;-79
2023/02/01 17:37:54;;;;;;;4.47;2.10;;;;;;;;;;6217375;28;20282;-76
2023/02/01 17:41:00;;;;;;;2.13;2.03;;;;;;;;;;6235217;28;20313;-77
2023/02/01 17:44:05;;;;;;;2.80;2.40;;;;;;;;;;6235452;28;20284;-78
2023/02/01 17:47:10;;;;;;;2.80;2.60;;;;;;;;;;6218330;28;20288;-77
2023/02/01 17:50:16;;;;;;;2.47;2.30;;;;;;;;;;6235476;28;20300;-78
2023/02/01 17:53:23;;;;;;;2.17;2.07;;;;;;;;;;6235487;28;20299;-77
2023/02/01 17:56:29;;;;;;;2.73;2.53;;;;;;;;;;6235443;28;20288;-79
2023/02/01 17:59:34;;;;;;;2.90;2.80;;;;;;;;;;6237783;28;20295;-78
2023/02/01 18:02:39;;;;;;;2.77;2.67;;;;;;;;;;6240148;28;20290;-78
2023/02/01 18:05:49;;;;;;;3.30;2.90;;;;;;;;;;6239198;28;20303;-78
2023/02/01 18:08:56;;;;;;;3.50;2.70;;;;;;;;;;6241109;28;20331;-78
2023/02/01 18:12:05;;;;;;;6.73;2.80;;;;;;;;;;6222256;28;20304;-77
2023/02/01 18:15:20;;;;;;;2.83;2.63;;;;;;;;;;6240147;28;20299;-77
2023/02/01 18:18:27;;;;;;;3.93;3.13;;;;;;;;;;6240739;28;20300;-78
2023/02/01 18:21:34;;;;;;;7.23;3.47;;;;;;;;;;6239729;28;20299;-77
2023/02/01 18:24:41;;;;;;;4.70;3.20;;;;;;;;;;6238820;28;20296;-76
2023/02/01 18:27:46;;;;;;;2.93;2.70;;;;;;;;;;6214702;28;20296;-78
2023/02/01 18:30:51;;;;;;;3.87;3.57;;;;;;;;;;6215689;28;20312;-78
2023/02/01 18:33:58;;;;;;;4.03;2.73;;;;;;;;;;6239909;28;20307;-77
2023/02/01 18:37:04;;;;;;;2.60;2.33;;;;;;;;;;6206336;28;20308;-77
2023/02/01 18:40:16;;;;;;;4.07;2.80;;;;;;;;;;6239681;28;20308;-78
2023/02/01 18:43:22;;;;;;;2.63;2.43;;;;;;;;;;6239625;28;20298;-77
2023/02/01 18:46:27;;;;;;;2.97;2.67;;;;;;;;;;6239559;28;20473;-77
2023/02/01 18:49:33;;;;;;;2.70;2.60;;;;;;;;;;6239604;28;20298;-78
2023/02/01 18:52:41;;;;;;;2.10;2.00;;;;;;;;;;6239525;28;20307;-77
2023/02/01 18:55:50;;;;;;;2.10;2.00;;;;;;;;;;6239479;28;20303;-77
2023/02/01 18:58:58;;;;;;;2.20;2.10;;;;;;;;;;6221483;28;20275;-78
2023/02/01 19:02:04;;;;;;;2.07;2.00;;;;;;;;;;6228667;28;20351;-76
2023/02/01 19:05:12;;;;;;;2.07;1.97;;;;;;;;;;6203059;28;20312;-78
2023/02/01 19:08:17;;;;;;;2.67;2.50;;;;;;;;;;6214850;28;20352;-78
2023/02/01 19:11:24;;;;;;;3.23;1.97;;;;;;;;;;6212779;28;20325;-76
2023/02/01 19:14:31;;;;;;;2.17;1.93;;;;;;;;;;6215059;28;20304;-78
2023/02/01 19:17:36;;;;;;;2.20;2.10;;;;;;;;;;6214922;28;20288;-79
2023/02/01 19:20:44;;;;;;;2.33;2.20;;;;;;;;;;6214287;28;20285;-78